Fellowship — WDF3728 — position and weather

sailwx.info

Track history (hours):
 
Tides and Currents Weather Stations Pressure Air Temp Water Temp Dewpoint Dewpoint Depression Visibility Wind Speed Wind Dir Waves Ship Positions

Fellowship

Owner: International Fellowship Foundation, Inc., Green Cove Springs, FL. More information available from US FCC via Universal Licensing System and Coast Guard Vessel Documentation Center.

Last reported at 2017-Sep-12 22:29 UTC. Time now 2017-Sep-20 00:24 UTC.
Position N 34°15' W 119°16'.

Length 13 m.

Type: Sailing vessel. MMSI: 367443340.

Date/timePositionNaut miles runAvg speedWind from/ knotsBaromVisibWave heightAir tempDewpointWater temp
2017-Sep-12 22:29N 34°15' W 119°16'  
2017-Sep-08 14:31N 34°14' W 119°16'0 0.0
2017-Sep-08 13:13N 34°14' W 119°16'0 0.0
2017-Sep-08 12:13N 34°14' W 119°16'0 0.0
2017-Sep-08 11:31N 34°14' W 119°16'0 0.0
2017-Sep-08 11:19N 34°14' W 119°16'0 0.0
2017-Sep-08 10:58N 34°14' W 119°16'0 0.0
2017-Sep-08 10:25N 34°14' W 119°16'0 0.0
2017-Sep-08 08:49N 34°14' W 119°16'0 0.0
2017-Sep-08 08:25N 34°14' W 119°16'0 0.0
2017-Sep-08 07:40N 34°14' W 119°16'0 0.0
2017-Sep-08 07:13N 34°14' W 119°16'0 0.0
2017-Sep-08 06:58N 34°14' W 119°16'0 0.0
2017-Sep-08 06:19N 34°14' W 119°16'0 0.0
2017-Sep-08 05:43N 34°14' W 119°16'0 0.0
2017-Sep-08 05:28N 34°14' W 119°16'0 0.0
2017-Sep-08 04:01N 34°14' W 119°16'0 0.0
2017-Sep-08 03:40N 34°14' W 119°16'0 0.0
2017-Sep-08 03:13N 34°14' W 119°16'0 0.0
2017-Sep-08 02:55N 34°14' W 119°16'0 0.0
2017-Sep-08 02:25N 34°14' W 119°16'0 0.0
2017-Sep-08 01:07N 34°14' W 119°16'0 0.0
2017-Sep-08 00:55N 34°14' W 119°16'0 0.0
2017-Sep-07 23:13N 34°14' W 119°16'0 0.0
2017-Sep-07 22:52N 34°14' W 119°16'0 0.0
2017-Sep-06 01:50N 34°15' W 119°16'4 4.3
2017-Sep-06 00:52N 34°13' W 119°20'3 6.9
2017-Sep-06 00:29N 34°11' W 119°23'3 7.1
2017-Sep-06 00:00N 34°10' W 119°26'3 6.7
2017-Sep-05 23:30N 34°08' W 119°30'3 5.6
2017-Sep-05 22:56N 34°06' W 119°33'4 5.9
2017-Sep-05 22:17N 34°04' W 119°37'2 6.0
2017-Sep-05 21:58N 34°03' W 119°39'3 0.1
2017-Sep-05 01:01N 34°01' W 119°41'0 0.0
2017-Sep-05 00:46N 34°01' W 119°41'0 0.0
2017-Sep-05 00:25N 34°01' W 119°41'1 1.7
2017-Sep-04 23:58N 34°02' W 119°42'2 4.5
2017-Sep-04 23:30N 34°03' W 119°39'3 5.1
2017-Sep-04 22:51N 34°05' W 119°36'2 4.8
2017-Sep-04 22:28N 34°06' W 119°35'2 5.1
2017-Sep-04 22:00N 34°08' W 119°32'3 4.8
2017-Sep-04 21:28N 34°09' W 119°30'3 5.2
2017-Sep-04 20:51N 34°11' W 119°26'2 5.3
2017-Sep-04 20:30N 34°12' W 119°24'6 5.1
2017-Sep-04 19:18N 34°15' W 119°18'1 4.3
2017-Sep-04 18:58N 34°15' W 119°16'1 0.6
2017-Sep-04 18:03N 34°15' W 119°16'0 0.0
2017-Sep-04 18:00N 34°15' W 119°16'  
Track history (hours):
 
Tides and Currents Weather Stations Pressure Air Temp Water Temp Dewpoint Dewpoint Depression Visibility Wind Speed Wind Dir Waves Ship Positions

Fellowship

Owner: International Fellowship Foundation, Inc., Green Cove Springs, FL. More information available from US FCC via Universal Licensing System and Coast Guard Vessel Documentation Center.

Last reported at 2017-Sep-12 22:29 UTC. Time now 2017-Sep-20 00:24 UTC.
Position N 34°15' W 119°16'.

Length 13 m.

Type: Sailing vessel. MMSI: 367443340.

Date/timePositionNaut miles runAvg speedWind from/ knotsBaromVisibWave heightAir tempDewpointWater temp
2017-Sep-12 22:29N 34°15' W 119°16'  
2017-Sep-08 14:31N 34°14' W 119°16'0 0.0
2017-Sep-08 13:13N 34°14' W 119°16'0 0.0
2017-Sep-08 12:13N 34°14' W 119°16'0 0.0
2017-Sep-08 11:31N 34°14' W 119°16'0 0.0
2017-Sep-08 11:19N 34°14' W 119°16'0 0.0
2017-Sep-08 10:58N 34°14' W 119°16'0 0.0
2017-Sep-08 10:25N 34°14' W 119°16'0 0.0
2017-Sep-08 08:49N 34°14' W 119°16'0 0.0
2017-Sep-08 08:25N 34°14' W 119°16'0 0.0
2017-Sep-08 07:40N 34°14' W 119°16'0 0.0
2017-Sep-08 07:13N 34°14' W 119°16'0 0.0
2017-Sep-08 06:58N 34°14' W 119°16'0 0.0
2017-Sep-08 06:19N 34°14' W 119°16'0 0.0
2017-Sep-08 05:43N 34°14' W 119°16'0 0.0
2017-Sep-08 05:28N 34°14' W 119°16'0 0.0
2017-Sep-08 04:01N 34°14' W 119°16'0 0.0
2017-Sep-08 03:40N 34°14' W 119°16'0 0.0
2017-Sep-08 03:13N 34°14' W 119°16'0 0.0
2017-Sep-08 02:55N 34°14' W 119°16'0 0.0
2017-Sep-08 02:25N 34°14' W 119°16'0 0.0
2017-Sep-08 01:07N 34°14' W 119°16'0 0.0
2017-Sep-08 00:55N 34°14' W 119°16'0 0.0
2017-Sep-07 23:13N 34°14' W 119°16'0 0.0
2017-Sep-07 22:52N 34°14' W 119°16'0 0.0
2017-Sep-06 01:50N 34°15' W 119°16'4 4.3
2017-Sep-06 00:52N 34°13' W 119°20'3 6.9
2017-Sep-06 00:29N 34°11' W 119°23'3 7.1
2017-Sep-06 00:00N 34°10' W 119°26'3 6.7
2017-Sep-05 23:30N 34°08' W 119°30'3 5.6
2017-Sep-05 22:56N 34°06' W 119°33'4 5.9
2017-Sep-05 22:17N 34°04' W 119°37'2 6.0
2017-Sep-05 21:58N 34°03' W 119°39'3 0.1
2017-Sep-05 01:01N 34°01' W 119°41'0 0.0
2017-Sep-05 00:46N 34°01' W 119°41'0 0.0
2017-Sep-05 00:25N 34°01' W 119°41'1 1.7
2017-Sep-04 23:58N 34°02' W 119°42'2 4.5
2017-Sep-04 23:30N 34°03' W 119°39'3 5.1
2017-Sep-04 22:51N 34°05' W 119°36'2 4.8
2017-Sep-04 22:28N 34°06' W 119°35'2 5.1
2017-Sep-04 22:00N 34°08' W 119°32'3 4.8
2017-Sep-04 21:28N 34°09' W 119°30'3 5.2
2017-Sep-04 20:51N 34°11' W 119°26'2 5.3
2017-Sep-04 20:30N 34°12' W 119°24'6 5.1
2017-Sep-04 19:18N 34°15' W 119°18'1 4.3
2017-Sep-04 18:58N 34°15' W 119°16'1 0.6
2017-Sep-04 18:03N 34°15' W 119°16'0 0.0
2017-Sep-04 18:00N 34°15' W 119°16'  

Dump ship's entire track history